Time;durP1;ratioP1;P1;durP2;ratioP2;P2;SDS_P1;SDS_P2;PMS_P1;PMS_P2;Temp;Humidity;BMP_temperature;BMP_pressure;BME280_temperature;BME280_humidity;BME280_pressure;Samples;Min_cycle;Max_cycle;Signal;HPM_P1;HPM_P2
2022/03/11 00:02:25;;;;;;;11.88;5.45;;;;;;;10.18;68.47;99578.31;4992113;28;20055;-49
2022/03/11 00:04:52;;;;;;;13.73;6.85;;;;;;;10.20;68.04;99584.34;4992470;28;20477;-51
2022/03/11 00:07:19;;;;;;;16.33;6.40;;;;;;;10.17;68.46;99569.69;4992253;28;20120;-49
2022/03/11 00:09:45;;;;;;;11.82;5.55;;;;;;;10.16;68.25;99567.97;4994870;28;20109;-49
2022/03/11 00:12:12;;;;;;;15.82;6.68;;;;;;;10.15;68.64;99571.44;4990578;28;20049;-47
2022/03/11 00:14:39;;;;;;;13.95;6.40;;;;;;;10.11;68.40;99570.59;4990861;28;20054;-49
2022/03/11 00:17:06;;;;;;;12.57;5.53;;;;;;;10.10;68.21;99555.09;4991037;28;20053;-49
2022/03/11 00:19:33;;;;;;;17.85;7.15;;;;;;;10.10;68.75;99552.50;4992215;28;20071;-48
2022/03/11 00:22:00;;;;;;;17.25;7.28;;;;;;;10.08;68.48;99543.88;4992421;28;20650;-51
2022/03/11 00:24:26;;;;;;;17.73;7.25;;;;;;;10.07;68.80;99542.19;4978202;28;20117;-48
2022/03/11 00:26:53;;;;;;;19.98;8.10;;;;;;;10.04;68.71;99537.88;4990363;28;20738;-44
2022/03/11 00:29:20;;;;;;;19.27;7.30;;;;;;;10.03;68.97;99537.03;4993637;28;20049;-46
2022/03/11 00:31:46;;;;;;;17.92;7.53;;;;;;;10.00;68.31;99528.44;4988566;28;20050;-51
2022/03/11 00:34:14;;;;;;;17.30;6.57;;;;;;;9.96;68.77;99530.19;5000337;28;20046;-49
2022/03/11 00:36:43;;;;;;;16.95;7.75;;;;;;;9.95;69.28;99528.47;4995940;28;20093;-50
2022/03/11 00:39:10;;;;;;;16.10;6.85;;;;;;;9.89;69.51;99528.50;4997605;28;20047;-49
2022/03/11 00:41:38;;;;;;;17.60;7.35;;;;;;;9.92;69.14;99528.50;4993681;28;20430;-48
2022/03/11 00:44:05;;;;;;;13.90;6.75;;;;;;;9.91;69.43;99506.09;5000687;28;20050;-49
2022/03/11 00:46:31;;;;;;;16.65;6.88;;;;;;;9.90;69.39;99499.22;4986337;28;20054;-47
2022/03/11 00:48:58;;;;;;;16.52;6.97;;;;;;;9.86;69.80;99500.09;4998181;28;20125;-49
2022/03/11 00:51:25;;;;;;;19.23;7.68;;;;;;;9.87;69.73;99501.81;4993907;28;20061;-45
2022/03/11 00:53:52;;;;;;;17.45;7.07;;;;;;;9.82;69.87;99493.22;4997918;28;20111;-52
2022/03/11 00:56:18;;;;;;;21.05;7.72;;;;;;;9.80;69.49;99489.81;4991566;28;20050;-47
2022/03/11 00:58:46;;;;;;;17.40;8.05;;;;;;;9.75;69.41;99495.88;4990009;28;23003;-49
2022/03/11 01:01:13;;;;;;;18.38;7.57;;;;;;;9.72;69.67;99488.13;4985649;28;20433;-48
2022/03/11 01:03:40;;;;;;;19.48;7.68;;;;;;;9.71;69.54;99494.19;4993751;28;20133;-51
2022/03/11 01:06:06;;;;;;;19.88;7.95;;;;;;;9.66;70.20;99497.69;4989521;28;20103;-50
2022/03/11 01:08:33;;;;;;;20.42;10.07;;;;;;;9.68;69.74;99494.22;4997676;28;20441;-48
2022/03/11 01:11:17;;;;;;;18.13;7.13;;;;;;;9.62;69.83;99489.94;4996029;28;20172;-46
2022/03/11 01:13:44;;;;;;;17.60;8.40;;;;;;;9.62;70.34;99482.19;4996991;28;20053;-47
2022/03/11 01:16:10;;;;;;;22.15;8.27;;;;;;;9.61;69.89;99482.19;4991416;28;20513;-47
2022/03/11 01:18:37;;;;;;;19.95;9.63;;;;;;;9.59;70.21;99484.78;4994476;28;20048;-51
2022/03/11 01:21:04;;;;;;;19.17;8.18;;;;;;;9.56;70.17;99473.63;4995645;28;20050;-44
2022/03/11 01:23:30;;;;;;;18.80;8.73;;;;;;;9.51;70.30;99466.75;5000223;28;20046;-46
2022/03/11 01:25:57;;;;;;;20.65;9.18;;;;;;;9.48;70.11;99466.78;4992300;28;20046;-49
2022/03/11 01:28:23;;;;;;;22.88;9.45;;;;;;;9.49;70.03;99468.50;5000492;28;20093;-48
2022/03/11 01:30:50;;;;;;;18.40;8.38;;;;;;;9.42;70.51;99450.47;4985001;28;20050;-47
2022/03/11 01:33:17;;;;;;;22.52;9.95;;;;;;;9.38;70.04;99453.06;4999529;28;20132;-48
2022/03/11 01:35:43;;;;;;;24.48;10.32;;;;;;;9.33;70.04;99441.06;4994476;28;20058;-46
2022/03/11 01:38:10;;;;;;;21.77;9.55;;;;;;;9.29;70.32;99434.19;4992406;28;20046;-46
2022/03/11 01:40:36;;;;;;;21.60;9.38;;;;;;;9.23;70.22;99435.09;4990201;28;20050;-50
2022/03/11 01:43:03;;;;;;;19.67;8.70;;;;;;;9.20;70.50;99440.28;4993717;28;20097;-47
2022/03/11 01:45:30;;;;;;;25.90;9.98;;;;;;;9.19;70.43;99433.41;4988236;28;20042;-47
2022/03/11 01:47:56;;;;;;;22.27;9.10;;;;;;;9.15;70.48;99436.88;4986509;28;22527;-47
2022/03/11 01:50:23;;;;;;;22.75;9.05;;;;;;;9.10;70.60;99429.16;4987519;28;20042;-51
2022/03/11 01:52:49;;;;;;;20.48;8.75;;;;;;;9.05;71.28;99420.56;4995419;28;20057;-43
2022/03/11 01:55:16;;;;;;;21.83;9.25;;;;;;;9.09;70.86;99423.09;4997888;28;20046;-48
2022/03/11 01:57:43;;;;;;;22.33;9.57;;;;;;;9.05;70.91;99418.00;4986897;28;20121;-54
2022/03/11 02:00:10;;;;;;;22.38;9.30;;;;;;;9.03;71.07;99409.38;4987294;28;20490;-44
2022/03/11 02:02:37;;;;;;;22.25;9.48;;;;;;;9.07;71.11;99404.19;4994692;28;20054;-45
2022/03/11 02:05:04;;;;;;;21.65;8.93;;;;;;;9.10;70.82;99398.16;4990863;28;20124;-46
2022/03/11 02:07:30;;;;;;;23.67;9.73;;;;;;;9.10;70.99;99395.56;4988311;28;20050;-49
2022/03/11 02:09:57;;;;;;;19.65;9.35;;;;;;;9.10;71.26;99398.16;4998383;28;20101;-50
2022/03/11 02:12:35;;;;;;;22.83;9.15;;;;;;;9.10;71.26;99392.97;4983698;28;20498;-46
2022/03/11 02:15:04;;;;;;;18.00;7.22;;;;;;;9.11;71.20;99392.09;4984241;28;20101;-48
2022/03/11 02:17:30;;;;;;;17.88;8.15;;;;;;;9.14;70.81;99386.91;4998392;28;20049;-44
2022/03/11 02:19:57;;;;;;;20.23;7.63;;;;;;;9.15;71.46;99396.38;4990057;28;20050;-47
2022/03/11 02:22:25;;;;;;;22.95;8.48;;;;;;;9.18;70.86;99375.69;4989125;28;20049;-46
2022/03/11 02:24:53;;;;;;;14.55;7.10;;;;;;;9.14;70.91;99384.34;4988343;28;20108;-43
2022/03/11 02:27:20;;;;;;;21.55;8.55;;;;;;;9.19;70.77;99387.72;4993099;28;20046;-46
2022/03/11 02:29:47;;;;;;;22.48;8.35;;;;;;;9.17;70.85;99368.81;4991608;28;20105;-48
2022/03/11 02:32:13;;;;;;;18.58;7.65;;;;;;;9.10;70.93;99362.84;4987542;28;20109;-48
2022/03/11 02:34:40;;;;;;;21.10;8.00;;;;;;;9.12;70.65;99355.09;4988826;28;20435;-46
2022/03/11 02:37:09;;;;;;;13.07;7.07;;;;;;;9.07;70.66;99351.66;4991255;28;20054;-48
2022/03/11 02:39:36;;;;;;;20.77;8.45;;;;;;;9.08;70.81;99340.44;4984623;28;20057;-46
2022/03/11 02:42:04;;;;;;;20.95;8.65;;;;;;;9.05;70.89;99337.91;4985280;28;20039;-46
2022/03/11 02:44:31;;;;;;;21.50;8.23;;;;;;;9.06;70.76;99337.91;4991750;28;20055;-52
2022/03/11 02:47:00;;;;;;;25.95;8.80;;;;;;;9.07;70.29;99323.25;4993170;28;20559;-46
2022/03/11 02:49:27;;;;;;;21.65;7.90;;;;;;;9.02;70.76;99317.28;4988506;28;20058;-46
2022/03/11 02:51:56;;;;;;;24.77;9.13;;;;;;;9.03;70.48;99316.38;4985522;28;20112;-45
2022/03/11 02:54:24;;;;;;;19.85;8.27;;;;;;;9.02;71.08;99312.09;4986783;28;20594;-47
2022/03/11 02:56:50;;;;;;;16.10;7.55;;;;;;;8.98;70.72;99306.97;4989613;28;20050;-47
2022/03/11 02:59:18;;;;;;;22.75;7.97;;;;;;;8.97;70.65;99297.50;4994073;28;20525;-45
2022/03/11 03:01:44;;;;;;;21.30;8.45;;;;;;;8.94;70.73;99294.94;4985735;28;20050;-51
2022/03/11 03:04:11;;;;;;;19.38;8.15;;;;;;;8.90;70.43;99292.38;4987326;28;20054;-47
2022/03/11 03:06:38;;;;;;;19.77;7.95;;;;;;;8.84;71.15;99277.78;4990286;28;20050;-48
2022/03/11 03:09:05;;;;;;;18.02;6.57;;;;;;;8.80;70.91;99287.31;4990013;28;20506;-45
2022/03/11 03:11:31;;;;;;;18.73;8.75;;;;;;;8.77;70.87;99282.16;4989715;28;20058;-44
2022/03/11 03:13:58;;;;;;;21.17;8.20;;;;;;;8.79;70.23;99274.41;4989319;28;20112;-47
2022/03/11 03:16:25;;;;;;;21.08;7.82;;;;;;;8.73;70.18;99273.59;4984937;28;20126;-47
2022/03/11 03:18:52;;;;;;;16.88;7.57;;;;;;;8.72;71.10;99274.44;4993995;28;20457;-47
2022/03/11 03:21:18;;;;;;;21.25;8.35;;;;;;;8.72;69.94;99268.44;4991935;28;20097;-44
2022/03/11 03:23:45;;;;;;;15.32;6.75;;;;;;;8.69;70.92;99264.16;4990846;28;20105;-47
2022/03/11 03:26:11;;;;;;;21.33;8.38;;;;;;;8.72;70.21;99273.59;4989791;28;20050;-46
2022/03/11 03:28:38;;;;;;;18.10;6.53;;;;;;;8.71;70.01;99265.00;4992530;28;20046;-44
2022/03/11 03:31:04;;;;;;;15.82;6.60;;;;;;;8.72;70.91;99264.09;4990738;28;20046;-47
2022/03/11 03:33:31;;;;;;;19.15;7.53;;;;;;;8.75;70.86;99258.09;4988675;28;20043;-48
2022/03/11 03:35:58;;;;;;;18.33;7.78;;;;;;;8.75;69.90;99258.09;4994741;28;20077;-45
2022/03/11 03:38:24;;;;;;;21.35;7.97;;;;;;;8.77;69.61;99260.63;4991069;28;20105;-44
2022/03/11 03:40:51;;;;;;;15.13;6.72;;;;;;;8.80;69.71;99252.88;4988009;28;20050;-50
2022/03/11 03:43:18;;;;;;;17.60;7.60;;;;;;;8.79;69.93;99256.31;4987685;28;20070;-51
2022/03/11 03:45:44;;;;;;;18.67;9.68;;;;;;;8.78;70.03;99252.03;4990384;28;20441;-46
2022/03/11 03:48:11;;;;;;;16.33;7.97;;;;;;;8.78;69.34;99252.03;4986759;28;20745;-50
2022/03/11 03:50:38;;;;;;;17.02;7.45;;;;;;;8.80;69.57;99253.75;4988055;28;20088;-48
2022/03/11 03:53:23;;;;;;;16.73;6.90;;;;;;;8.76;69.44;99253.75;4990888;28;20042;-50
2022/03/11 03:55:49;;;;;;;18.77;7.40;;;;;;;8.78;69.38;99244.28;4993087;28;20069;-45
2022/03/11 03:58:16;;;;;;;16.70;7.53;;;;;;;8.76;69.50;99248.59;4987276;28;20580;-47
2022/03/11 04:00:43;;;;;;;16.05;7.03;;;;;;;8.82;70.03;99245.97;4987557;28;20047;-48
2022/03/11 04:03:09;;;;;;;18.10;7.32;;;;;;;8.83;69.82;99240.81;4987592;28;20046;-43
2022/03/11 04:05:37;;;;;;;14.68;6.60;;;;;;;8.86;69.10;99240.75;4993922;28;20053;-46
2022/03/11 04:08:04;;;;;;;15.68;6.30;;;;;;;8.84;69.66;99231.31;4993256;28;20083;-49
2022/03/11 04:10:31;;;;;;;19.83;7.30;;;;;;;8.85;69.90;99217.56;4990039;28;20043;-44
2022/03/11 04:12:57;;;;;;;18.67;6.75;;;;;;;8.85;69.68;99215.81;4986545;28;20046;-50
2022/03/11 04:15:24;;;;;;;15.10;6.85;;;;;;;8.87;68.94;99215.81;4984614;28;20595;-49
2022/03/11 04:17:50;;;;;;;20.65;8.07;;;;;;;8.84;69.91;99205.50;4990153;28;20054;-46
2022/03/11 04:20:17;;;;;;;14.55;7.07;;;;;;;8.88;69.08;99207.16;4997131;28;20038;-46
2022/03/11 04:22:45;;;;;;;18.10;5.78;;;;;;;8.81;68.90;99210.72;4992714;28;20104;-45
2022/03/11 04:25:13;;;;;;;16.20;6.88;;;;;;;8.83;69.15;99207.25;4995866;28;20051;-45
2022/03/11 04:27:40;;;;;;;9.20;4.80;;;;;;;8.80;68.81;99206.38;4991029;28;20047;-47
2022/03/11 04:30:07;;;;;;;16.02;6.68;;;;;;;8.78;69.18;99197.81;4996026;28;20065;-44
2022/03/11 04:32:34;;;;;;;13.27;6.40;;;;;;;8.72;68.95;99196.16;4985960;28;20117;-46
2022/03/11 04:35:01;;;;;;;15.70;6.47;;;;;;;8.71;68.98;99200.44;4993873;28;20448;-47
2022/03/11 04:37:27;;;;;;;15.18;6.10;;;;;;;8.68;68.80;99192.72;4996823;28;20107;-44
2022/03/11 04:39:54;;;;;;;14.00;5.68;;;;;;;8.60;68.85;99194.50;4994285;28;20105;-45
2022/03/11 04:42:21;;;;;;;15.38;7.60;;;;;;;8.63;69.37;99201.38;4994317;28;20438;-47
2022/03/11 04:44:47;;;;;;;15.00;5.88;;;;;;;8.59;69.10;99190.22;4990921;28;20054;-45
2022/03/11 04:47:14;;;;;;;16.83;5.88;;;;;;;8.62;68.83;99190.22;4994353;28;20050;-45
2022/03/11 04:49:40;;;;;;;14.68;6.43;;;;;;;8.61;69.71;99183.31;4993474;28;20128;-46
2022/03/11 04:52:07;;;;;;;13.57;5.68;;;;;;;8.58;69.93;99180.78;4988362;28;20073;-47
2022/03/11 04:54:34;;;;;;;15.40;6.70;;;;;;;8.59;69.92;99175.63;4999522;28;20099;-42
2022/03/11 04:57:00;;;;;;;17.17;6.55;;;;;;;8.57;70.09;99182.50;4988587;28;20107;-47
2022/03/11 04:59:27;;;;;;;19.95;7.13;;;;;;;8.55;69.75;99185.97;4998292;28;20472;-51
2022/03/11 05:01:53;;;;;;;14.30;6.20;;;;;;;8.49;69.96;99195.41;4993581;28;20050;-46
2022/03/11 05:04:20;;;;;;;11.18;5.25;;;;;;;8.47;69.38;99184.28;4989471;28;20080;-48
2022/03/11 05:06:46;;;;;;;16.65;6.40;;;;;;;8.46;69.63;99176.53;4990070;28;20108;-52
2022/03/11 05:09:13;;;;;;;16.02;5.70;;;;;;;8.42;70.12;99175.72;4998971;28;20078;-43
2022/03/11 05:11:40;;;;;;;14.23;5.95;;;;;;;8.42;70.22;99175.72;4988648;28;20054;-49
2022/03/11 05:14:06;;;;;;;13.88;5.60;;;;;;;8.41;70.47;99173.97;4991710;28;20089;-48
2022/03/11 05:16:33;;;;;;;13.95;6.43;;;;;;;8.39;70.39;99180.91;4992841;28;20451;-48
2022/03/11 05:18:59;;;;;;;17.05;5.90;;;;;;;8.37;70.45;99180.03;4988324;28;20978;-49
2022/03/11 05:21:26;;;;;;;14.60;5.65;;;;;;;8.31;69.77;99175.78;4987365;28;20611;-49
2022/03/11 05:23:53;;;;;;;13.93;5.20;;;;;;;8.22;70.02;99176.72;4993633;28;20054;-50
2022/03/11 05:26:28;;;;;;;13.15;4.88;;;;;;;8.20;70.90;99182.75;4989871;28;20047;-43
2022/03/11 05:28:58;;;;;;;12.40;4.60;;;;;;;8.27;70.32;99183.56;4987823;28;20486;-46
2022/03/11 05:31:26;;;;;;;15.35;5.25;;;;;;;8.32;70.01;99176.66;4992264;28;20057;-44
2022/03/11 05:33:54;;;;;;;12.13;5.45;;;;;;;8.36;70.20;99170.59;4988653;28;20073;-45
2022/03/11 05:36:22;;;;;;;12.32;4.55;;;;;;;8.43;71.01;99167.09;4988813;28;20054;-44
2022/03/11 05:38:49;;;;;;;15.00;7.13;;;;;;;8.45;70.90;99156.75;4995012;28;21211;-48
2022/03/11 05:41:16;;;;;;;14.00;5.03;;;;;;;8.42;69.76;99152.50;4988680;28;20540;-44
2022/03/11 05:43:43;;;;;;;12.60;5.22;;;;;;;8.35;70.68;99146.50;4990760;28;22044;-44
2022/03/11 05:46:10;;;;;;;14.88;6.40;;;;;;;8.33;69.86;99152.53;4991595;28;20050;-50
2022/03/11 05:48:36;;;;;;;13.55;5.40;;;;;;;8.34;70.63;99141.34;4986849;28;20109;-46
2022/03/11 05:51:06;;;;;;;14.15;5.63;;;;;;;8.28;71.16;99138.84;4991153;28;20054;-45
2022/03/11 05:53:33;;;;;;;13.23;5.68;;;;;;;8.25;70.62;99123.38;4996979;28;20501;-44
2022/03/11 05:55:59;;;;;;;15.40;5.82;;;;;;;8.19;70.46;99132.88;4996223;28;20470;-47
2022/03/11 05:58:26;;;;;;;13.18;5.75;;;;;;;8.17;71.34;99126.88;4991056;28;20425;-44
2022/03/11 06:00:52;;;;;;;14.18;6.00;;;;;;;8.12;71.23;99120.03;4992388;28;20622;-50
2022/03/11 06:03:20;;;;;;;12.10;4.80;;;;;;;8.06;71.11;99119.22;4996676;28;20045;-45
2022/03/11 06:05:48;;;;;;;16.25;6.07;;;;;;;8.04;70.50;99120.09;4992060;28;20053;-47
2022/03/11 06:08:14;;;;;;;13.75;6.18;;;;;;;8.02;71.77;99111.50;4997344;28;20128;-46
2022/03/11 06:10:42;;;;;;;14.00;6.55;;;;;;;7.97;71.89;99108.97;5001313;28;20061;-44
2022/03/11 06:13:09;;;;;;;12.63;5.20;;;;;;;7.95;70.82;99111.56;4986616;28;20540;-44
2022/03/11 06:15:35;;;;;;;12.68;5.25;;;;;;;7.94;71.03;99114.16;4986233;28;20050;-42
2022/03/11 06:18:02;;;;;;;11.50;4.47;;;;;;;7.88;72.18;99109.91;4982240;28;20057;-46
2022/03/11 06:20:30;;;;;;;14.75;6.03;;;;;;;7.86;71.20;99109.03;4988605;28;20088;-44
2022/03/11 06:22:58;;;;;;;15.07;5.45;;;;;;;7.88;71.42;99103.88;4996065;28;20058;-48
2022/03/11 06:25:24;;;;;;;13.82;5.20;;;;;;;7.83;72.44;99101.31;4992851;28;20109;-44
2022/03/11 06:27:51;;;;;;;14.60;6.45;;;;;;;7.77;71.16;99101.38;4996409;28;20094;-48
2022/03/11 06:30:18;;;;;;;17.90;5.95;;;;;;;7.75;72.12;99103.09;4990568;28;20140;-45
2022/03/11 06:32:47;;;;;;;14.07;5.63;;;;;;;7.74;72.33;99091.09;4990667;28;20054;-45
2022/03/11 06:35:15;;;;;;;17.05;6.40;;;;;;;7.70;72.01;99095.41;4986057;28;20470;-45
2022/03/11 06:37:44;;;;;;;14.93;6.22;;;;;;;7.65;71.93;99082.56;4984391;28;20104;-50
2022/03/11 06:40:11;;;;;;;15.38;6.70;;;;;;;7.66;72.53;99081.69;4993423;28;20042;-51
2022/03/11 06:42:41;;;;;;;15.75;5.85;;;;;;;7.64;72.19;99080.84;4992128;28;20043;-47
2022/03/11 06:45:08;;;;;;;16.20;6.82;;;;;;;7.62;72.12;99080.00;4985263;28;20061;-44
2022/03/11 06:47:36;;;;;;;13.27;5.10;;;;;;;7.61;72.82;99086.00;4982943;28;20517;-51
2022/03/11 06:50:04;;;;;;;14.57;5.15;;;;;;;7.58;72.95;99071.44;4982898;28;20050;-48
2022/03/11 06:52:31;;;;;;;14.55;6.03;;;;;;;7.62;73.00;99061.94;4994932;28;20792;-47
2022/03/11 06:54:58;;;;;;;15.80;6.15;;;;;;;7.61;73.14;99064.53;4992186;28;20058;-48
2022/03/11 06:57:25;;;;;;;16.52;7.00;;;;;;;7.61;71.77;99065.41;4986159;28;20088;-47
2022/03/11 06:59:51;;;;;;;14.68;5.53;;;;;;;7.61;73.23;99067.97;4984613;28;20595;-48
2022/03/11 07:02:18;;;;;;;14.63;5.95;;;;;;;7.63;72.27;99063.66;4992830;28;20053;-43
2022/03/11 07:04:49;;;;;;;14.93;6.40;;;;;;;7.61;73.48;99065.41;4991353;28;20140;-47
2022/03/11 07:07:16;;;;;;;13.88;5.32;;;;;;;7.62;72.29;99066.22;4996280;28;20076;-47
2022/03/11 07:09:42;;;;;;;16.15;6.38;;;;;;;7.63;73.58;99067.97;4990979;28;20050;-44
2022/03/11 07:12:09;;;;;;;14.88;6.25;;;;;;;7.66;72.89;99058.47;4990357;28;20502;-43
2022/03/11 07:14:36;;;;;;;16.63;6.90;;;;;;;7.67;72.81;99052.44;4999961;28;20077;-43
2022/03/11 07:17:04;;;;;;;16.05;6.28;;;;;;;7.70;72.83;99052.44;4998083;28;20526;-45
2022/03/11 07:19:32;;;;;;;14.38;6.20;;;;;;;7.76;73.30;99053.25;4987995;28;20380;-47
2022/03/11 07:22:01;;;;;;;20.73;6.57;;;;;;;7.80;72.69;99047.22;4987304;28;20062;-47
2022/03/11 07:24:27;;;;;;;13.88;5.93;;;;;;;7.81;72.30;99052.34;5001079;28;20050;-44
2022/03/11 07:26:54;;;;;;;14.70;6.38;;;;;;;7.87;72.15;99045.47;4995460;28;20108;-46
2022/03/11 07:29:21;;;;;;;18.10;8.00;;;;;;;7.93;72.92;99033.38;4986860;28;20474;-41
2022/03/11 07:31:48;;;;;;;19.65;9.10;;;;;;;7.98;72.43;99029.00;4999708;28;20421;-45
2022/03/11 07:34:15;;;;;;;13.10;5.55;;;;;;;8.04;71.53;99038.41;4991651;28;20497;-44
2022/03/11 07:36:42;;;;;;;16.77;5.80;;;;;;;8.05;71.66;99028.97;5004297;28;20489;-47
2022/03/11 07:39:10;;;;;;;17.90;7.13;;;;;;;8.14;71.20;99028.03;4994683;28;20097;-44
2022/03/11 07:41:37;;;;;;;10.25;4.97;;;;;;;8.17;71.70;99028.00;4992163;28;20046;-45
2022/03/11 07:44:04;;;;;;;14.63;6.47;;;;;;;8.27;71.66;99021.88;4989088;28;20054;-48
2022/03/11 07:46:41;;;;;;;18.02;6.95;;;;;;;8.53;71.01;99013.06;4989466;28;20077;-45
2022/03/11 07:49:08;;;;;;;16.35;6.43;;;;;;;8.72;69.55;99011.09;4988962;28;20112;-48
2022/03/11 07:51:35;;;;;;;19.85;8.45;;;;;;;8.86;69.76;99012.69;4988842;28;20457;-46
2022/03/11 07:54:01;;;;;;;13.52;6.18;;;;;;;8.99;68.46;99016.78;4985563;28;20059;-44
2022/03/11 07:56:28;;;;;;;15.75;6.50;;;;;;;9.12;68.32;99004.59;4986500;28;20090;-47
2022/03/11 07:58:56;;;;;;;15.75;6.45;;;;;;;9.37;67.82;98995.63;4985239;28;20050;-49
2022/03/11 08:01:23;;;;;;;13.23;5.50;;;;;;;9.55;67.14;98991.06;4989515;28;20043;-49
2022/03/11 08:03:50;;;;;;;12.60;6.45;;;;;;;9.69;66.28;98989.09;4986507;28;20395;-50
2022/03/11 08:06:16;;;;;;;15.55;6.90;;;;;;;9.75;65.73;98994.19;4990308;28;20054;-47
2022/03/11 08:08:43;;;;;;;11.23;6.18;;;;;;;9.82;65.29;98994.06;4989468;28;20400;-48
2022/03/11 08:11:11;;;;;;;13.65;6.00;;;;;;;10.00;65.23;98996.34;4996418;28;20069;-47
2022/03/11 08:13:37;;;;;;;11.63;5.03;;;;;;;10.25;63.93;98992.47;4971874;28;20057;-49
2022/03/11 08:16:09;;;;;;;13.23;5.65;;;;;;;10.64;63.93;98986.59;4994332;28;20042;-48
2022/03/11 08:18:36;;;;;;;15.75;6.53;;;;;;;10.97;62.20;98981.59;4988817;28;20405;-47
2022/03/11 08:21:03;;;;;;;13.45;5.78;;;;;;;11.24;62.26;98986.19;4991256;28;20054;-49
2022/03/11 08:23:30;;;;;;;17.02;6.15;;;;;;;11.50;60.74;98983.00;4988769;28;20050;-48
2022/03/11 08:25:57;;;;;;;15.93;6.13;;;;;;;11.74;60.86;98972.94;4989979;28;20104;-44
2022/03/11 08:28:24;;;;;;;16.30;8.02;;;;;;;11.66;59.40;98969.66;4994416;28;21740;-50
2022/03/11 08:30:50;;;;;;;15.32;6.15;;;;;;;11.60;60.92;98980.19;4990114;28;20054;-49
2022/03/11 08:33:22;;;;;;;16.00;5.63;;;;;;;11.35;59.92;98971.25;4991804;28;20077;-52
2022/03/11 08:36:09;;;;;;;12.32;4.95;;;;;;;11.03;60.86;98965.91;4989751;28;20117;-45
2022/03/11 08:38:38;;;;;;;15.27;6.25;;;;;;;10.73;61.28;98965.69;4996305;28;20399;-47
2022/03/11 08:41:07;;;;;;;16.58;5.65;;;;;;;10.51;61.50;98958.34;5002581;28;20507;-48
2022/03/11 08:43:35;;;;;;;14.55;5.68;;;;;;;10.37;61.95;98944.81;4986087;28;20058;-51
2022/03/11 08:46:01;;;;;;;14.00;6.50;;;;;;;10.31;63.03;98944.91;4981101;28;20121;-44
2022/03/11 08:48:28;;;;;;;16.60;5.82;;;;;;;10.25;63.36;98940.72;4982617;28;20050;-43
2022/03/11 08:50:55;;;;;;;12.32;4.88;;;;;;;10.21;63.21;98927.00;4979878;28;20058;-49
2022/03/11 08:53:21;;;;;;;13.18;5.93;;;;;;;10.21;64.13;98929.59;4987472;28;20128;-51
2022/03/11 08:55:48;;;;;;;14.68;5.97;;;;;;;10.32;63.60;98925.91;4984388;28;20072;-50
2022/03/11 08:58:15;;;;;;;15.20;6.10;;;;;;;10.39;63.25;98918.00;4990081;28;20111;-47
2022/03/11 09:00:46;;;;;;;15.02;6.72;;;;;;;10.51;63.31;98927.28;4992346;28;20145;-53
2022/03/11 09:03:12;;;;;;;15.18;5.97;;;;;;;10.74;61.97;98922.53;4991981;28;20056;-46
2022/03/11 09:05:40;;;;;;;15.07;6.47;;;;;;;10.89;62.12;98911.81;5001017;28;20054;-45
2022/03/11 09:08:07;;;;;;;14.50;6.57;;;;;;;10.98;62.51;98904.72;4997394;28;20486;-49
2022/03/11 09:10:35;;;;;;;13.75;6.25;;;;;;;10.86;61.46;98916.19;4989476;28;20119;-46
2022/03/11 09:13:02;;;;;;;14.65;5.28;;;;;;;10.67;62.68;98911.41;4988538;28;20050;-48
2022/03/11 09:15:29;;;;;;;13.52;5.68;;;;;;;10.61;63.49;98907.22;4997439;28;20112;-50
2022/03/11 09:17:56;;;;;;;15.32;7.18;;;;;;;10.66;62.33;98904.53;4995965;28;20425;-44
2022/03/11 09:20:23;;;;;;;14.45;7.25;;;;;;;10.65;63.13;98902.84;5000121;28;20096;-53
2022/03/11 09:22:57;;;;;;;16.70;5.80;;;;;;;10.69;62.52;98898.44;4999340;28;20050;-50
2022/03/11 09:25:23;;;;;;;10.88;4.78;;;;;;;10.63;62.87;98892.53;4991477;28;20049;-50
2022/03/11 09:27:50;;;;;;;12.10;5.18;;;;;;;10.65;62.77;98901.13;4998159;28;20089;-44
2022/03/11 09:30:16;;;;;;;11.45;6.32;;;;;;;10.62;63.34;98913.25;4989982;28;20050;-50
2022/03/11 09:32:43;;;;;;;12.75;6.50;;;;;;;10.61;64.17;98896.88;4995191;28;20433;-52
2022/03/11 09:35:11;;;;;;;15.05;5.82;;;;;;;10.72;63.21;98899.25;4989996;28;20100;-50
2022/03/11 09:37:39;;;;;;;10.65;6.22;;;;;;;10.72;63.55;98901.84;4992073;28;20134;-51
2022/03/11 09:40:07;;;;;;;11.10;5.32;;;;;;;10.58;63.99;98896.09;4990201;28;20057;-52
2022/03/11 09:42:34;;;;;;;11.98;5.50;;;;;;;10.52;63.36;98889.31;4994060;28;20466;-49
2022/03/11 09:45:01;;;;;;;14.05;4.97;;;;;;;10.49;64.38;98881.59;4994621;28;20124;-50
2022/03/11 09:47:28;;;;;;;10.77;5.03;;;;;;;10.41;64.59;98884.34;4987900;28;20046;-44
2022/03/11 09:49:55;;;;;;;15.00;7.10;;;;;;;10.27;65.18;98877.69;4989326;28;20421;-47
2022/03/11 09:52:23;;;;;;;16.77;5.70;;;;;;;10.24;65.55;98880.34;4988588;28;20043;-47
2022/03/11 09:54:50;;;;;;;13.32;4.85;;;;;;;10.21;65.83;98877.84;4988136;28;20060;-48
2022/03/11 09:57:19;;;;;;;10.48;4.60;;;;;;;10.11;65.33;98865.94;4992359;28;20045;-52
2022/03/11 09:59:46;;;;;;;11.10;4.65;;;;;;;10.10;65.89;98874.59;4991642;28;20095;-49
2022/03/11 10:02:23;;;;;;;11.77;5.30;;;;;;;10.06;65.97;98865.19;4985471;28;20046;-49
2022/03/11 10:04:52;;;;;;;13.38;5.90;;;;;;;10.01;66.52;98852.34;4992776;28;20062;-51
2022/03/11 10:07:39;;;;;;;12.00;6.47;;;;;;;9.97;66.17;98843.78;4992677;28;20111;-49
2022/03/11 10:10:21;;;;;;;10.90;4.35;;;;;;;9.91;66.71;98854.25;4984870;28;20088;-45
2022/03/11 10:13:08;;;;;;;10.85;5.32;;;;;;;9.90;66.62;98857.75;4993257;28;20133;-48
2022/03/11 10:15:35;;;;;;;13.95;5.72;;;;;;;9.86;66.70;98846.56;4987923;28;20050;-52
2022/03/11 10:18:03;;;;;;;9.82;5.18;;;;;;;9.85;67.01;98844.88;4994808;28;20053;-48
2022/03/11 10:20:31;;;;;;;9.60;4.72;;;;;;;9.87;67.74;98858.63;4996536;28;20084;-49
2022/03/11 10:22:58;;;;;;;12.88;4.70;;;;;;;9.90;66.95;98857.75;4997039;28;20497;-49
2022/03/11 10:25:28;;;;;;;10.65;4.93;;;;;;;9.90;67.50;98848.22;4992037;28;20136;-49
2022/03/11 10:30:34;;;;;;;10.93;5.57;;;;;;;9.98;67.44;98845.50;5045397;27;20874;-51
2022/03/11 10:33:05;;;;;;;10.15;4.75;;;;;;;9.98;67.49;98852.41;5017285;28;20049;-48
2022/03/11 10:35:36;;;;;;;11.05;4.63;;;;;;;10.02;68.22;98847.16;5007535;28;20112;-49
2022/03/11 10:38:07;;;;;;;13.73;6.28;;;;;;;10.08;67.73;98832.38;4985729;28;20054;-45
2022/03/11 10:40:39;;;;;;;11.70;4.70;;;;;;;10.10;68.12;98838.38;5002320;28;20060;-46
2022/03/11 10:43:31;;;;;;;15.63;6.05;;;;;;;10.12;67.74;98831.44;5007366;28;20136;-48
2022/03/11 10:48:53;;;;;;;12.93;5.75;;;;;;;10.23;67.81;98842.41;5024838;28;20408;-46
2022/03/11 10:53:56;;;;;;;11.68;5.85;;;;;;;10.32;67.61;98832.75;5054117;27;20391;-46
2022/03/11 10:59:24;;;;;;;12.63;6.25;;;;;;;10.39;68.26;98823.97;5008573;27;20411;-45
2022/03/11 11:01:52;;;;;;;13.63;5.45;;;;;;;10.46;67.72;98814.34;5008117;28;20096;-47
2022/03/11 11:04:19;;;;;;;12.27;6.03;;;;;;;10.48;67.64;98812.59;5026533;28;20141;-52
2022/03/11 11:06:46;;;;;;;11.10;5.63;;;;;;;10.54;67.77;98805.53;4989256;28;20511;-49
2022/03/11 11:09:17;;;;;;;13.60;5.75;;;;;;;10.62;67.49;98794.16;4991255;28;20434;-46
2022/03/11 11:11:44;;;;;;;11.18;5.05;;;;;;;10.64;67.24;98792.41;5003873;28;20058;-49
2022/03/11 11:14:11;;;;;;;11.60;4.72;;;;;;;10.70;67.33;98784.47;4997693;28;20054;-46
2022/03/11 11:16:40;;;;;;;10.13;5.15;;;;;;;10.75;66.00;98774.88;4984074;28;20807;-49
2022/03/11 11:19:10;;;;;;;11.85;4.93;;;;;;;10.83;66.17;98766.91;4987963;28;20059;-52
2022/03/11 11:21:40;;;;;;;11.70;6.07;;;;;;;10.91;66.16;98769.31;4987800;28;20046;-49
2022/03/11 11:24:15;;;;;;;13.00;6.30;;;;;;;10.99;66.16;98762.19;4988894;28;20050;-50
2022/03/11 11:26:48;;;;;;;13.13;5.25;;;;;;;11.03;65.96;98757.78;5026183;28;20545;-48
2022/03/11 11:29:18;;;;;;;14.75;5.13;;;;;;;11.11;66.23;98744.63;4992122;28;20050;-54
2022/03/11 11:31:47;;;;;;;12.32;6.07;;;;;;;11.19;65.67;98737.50;4987851;28;20050;-51
2022/03/11 11:37:07;;;;;;;12.50;4.75;;;;;;;11.24;65.31;98743.41;5013995;27;20414;-47
2022/03/11 11:39:43;;;;;;;9.80;3.78;;;;;;;11.29;65.38;98733.75;4993829;28;20053;-51
2022/03/11 11:42:12;;;;;;;10.85;5.20;;;;;;;11.31;64.17;98726.81;4991322;28;20483;-50
2022/03/11 11:44:43;;;;;;;8.82;3.72;;;;;;;11.31;64.23;98726.81;4992765;28;20054;-49
2022/03/11 11:47:16;;;;;;;10.60;5.13;;;;;;;11.35;63.85;98722.38;4988826;28;20045;-50
2022/03/11 11:49:51;;;;;;;10.23;4.38;;;;;;;11.39;63.73;98712.78;4990310;28;20129;-49